Weather at Troll A Platform

Public forecast

Using degrees Celsius for public forecast. Weather courtesy of forecast.io.

Current aviation weather report (METAR) for Troll A Platform

Retrieved 2021/10/22 01:20 UTC (28 minutes ago):

ENQA 220120Z AUTO 32024KT 9999NDV BKN016/// 04/00 Q0991 W08/S6

Closest aviation forecast (TAF) to Troll A Platform

Closest forecast is Oseberg A Platform, 28.1 nm (52.0 km) WSW. Retrieved 2021/10/21 21:57 UTC (4 hours ago):

TAF TAF ENOA 212000Z 2121/2221 33032KT 9999 -SHRA FEW015TCU SCT025 TEMPO 2121/2214 32040G50KT SHRA BKN014CB